sensor_id;sensor_type;location;lat;lon;timestamp;pressure;altitude;pressure_sealevel;temperature;humidity
69570;BME280;56781;42.292;23.146;2023-03-25T00:00:14;95338.03;;;2.50;100.00
69570;BME280;56781;42.292;23.146;2023-03-25T00:02:47;95347.25;;;2.10;100.00
69570;BME280;56781;42.292;23.146;2023-03-25T00:05:17;95368.06;;;2.06;100.00
69570;BME280;56781;42.292;23.146;2023-03-25T00:07:48;95350.38;;;1.80;100.00
69570;BME280;56781;42.292;23.146;2023-03-25T00:10:15;95337.22;;;1.58;100.00
69570;BME280;56781;42.292;23.146;2023-03-25T00:12:43;95350.03;;;1.98;100.00
69570;BME280;56781;42.292;23.146;2023-03-25T00:15:11;95350.63;;;2.05;100.00
69570;BME280;56781;42.292;23.146;2023-03-25T00:17:39;95352.72;;;2.03;100.00
69570;BME280;56781;42.292;23.146;2023-03-25T00:20:07;95356.38;;;2.29;100.00
69570;BME280;56781;42.292;23.146;2023-03-25T00:22:37;95348.41;;;2.56;100.00
69570;BME280;56781;42.292;23.146;2023-03-25T00:25:11;95360.19;;;2.76;100.00
69570;BME280;56781;42.292;23.146;2023-03-25T00:27:42;95347.41;;;2.30;100.00
69570;BME280;56781;42.292;23.146;2023-03-25T00:30:13;95334.91;;;1.17;100.00
69570;BME280;56781;42.292;23.146;2023-03-25T00:32:42;95352.03;;;1.37;100.00
69570;BME280;56781;42.292;23.146;2023-03-25T00:35:12;95346.88;;;1.47;100.00
69570;BME280;56781;42.292;23.146;2023-03-25T00:37:40;95371.06;;;1.44;100.00
69570;BME280;56781;42.292;23.146;2023-03-25T00:40:07;95347.41;;;1.27;100.00
69570;BME280;56781;42.292;23.146;2023-03-25T00:42:35;95338.03;;;1.14;100.00
69570;BME280;56781;42.292;23.146;2023-03-25T00:45:02;95346.75;;;1.37;100.00
69570;BME280;56781;42.292;23.146;2023-03-25T00:47:30;95349.69;;;1.40;100.00
69570;BME280;56781;42.292;23.146;2023-03-25T00:49:57;95334.75;;;1.73;100.00
69570;BME280;56781;42.292;23.146;2023-03-25T00:52:24;95359.13;;;1.58;100.00
69570;BME280;56781;42.292;23.146;2023-03-25T00:54:52;95324.91;;;1.41;100.00
69570;BME280;56781;42.292;23.146;2023-03-25T00:57:19;95327.16;;;1.32;100.00
69570;BME280;56781;42.292;23.146;2023-03-25T00:59:46;95344.78;;;1.27;100.00
69570;BME280;56781;42.292;23.146;2023-03-25T01:02:16;95325.28;;;1.06;100.00
69570;BME280;56781;42.292;23.146;2023-03-25T01:04:44;95336.19;;;0.93;100.00
69570;BME280;56781;42.292;23.146;2023-03-25T01:07:12;95317.09;;;0.85;100.00
69570;BME280;56781;42.292;23.146;2023-03-25T01:09:42;95311.19;;;0.95;100.00
69570;BME280;56781;42.292;23.146;2023-03-25T01:12:13;95313.19;;;1.10;100.00
69570;BME280;56781;42.292;23.146;2023-03-25T01:14:41;95313.97;;;1.32;100.00
69570;BME280;56781;42.292;23.146;2023-03-25T01:17:09;95320.31;;;1.09;100.00
69570;BME280;56781;42.292;23.146;2023-03-25T01:19:37;95304.63;;;1.20;100.00
69570;BME280;56781;42.292;23.146;2023-03-25T01:22:05;95296.13;;;1.40;100.00
69570;BME280;56781;42.292;23.146;2023-03-25T01:24:32;95316.84;;;1.53;100.00
69570;BME280;56781;42.292;23.146;2023-03-25T01:26:59;95306.44;;;0.97;100.00
69570;BME280;56781;42.292;23.146;2023-03-25T01:29:27;95292.66;;;1.12;100.00
69570;BME280;56781;42.292;23.146;2023-03-25T01:31:54;95292.50;;;1.46;100.00
69570;BME280;56781;42.292;23.146;2023-03-25T01:34:21;95277.03;;;1.05;100.00
69570;BME280;56781;42.292;23.146;2023-03-25T01:36:49;95306.28;;;1.26;100.00
69570;BME280;56781;42.292;23.146;2023-03-25T01:39:17;95311.66;;;1.58;100.00
69570;BME280;56781;42.292;23.146;2023-03-25T01:41:47;95279.84;;;1.21;100.00
69570;BME280;56781;42.292;23.146;2023-03-25T01:46:48;95266.25;;;1.56;100.00
69570;BME280;56781;42.292;23.146;2023-03-25T01:49:21;95284.09;;;1.49;100.00
69570;BME280;56781;42.292;23.146;2023-03-25T01:51:57;95280.56;;;1.38;100.00
69570;BME280;56781;42.292;23.146;2023-03-25T01:54:25;95279.88;;;1.48;100.00
69570;BME280;56781;42.292;23.146;2023-03-25T01:56:53;95256.41;;;1.24;100.00
69570;BME280;56781;42.292;23.146;2023-03-25T01:59:24;95258.41;;;1.12;100.00
69570;BME280;56781;42.292;23.146;2023-03-25T02:01:55;95292.38;;;1.36;100.00
69570;BME280;56781;42.292;23.146;2023-03-25T02:04:31;95271.28;;;1.36;100.00
69570;BME280;56781;42.292;23.146;2023-03-25T02:07:00;95270.09;;;1.21;100.00
69570;BME280;56781;42.292;23.146;2023-03-25T02:09:28;95264.25;;;1.19;100.00
69570;BME280;56781;42.292;23.146;2023-03-25T02:11:56;95245.94;;;1.29;100.00
69570;BME280;56781;42.292;23.146;2023-03-25T02:14:29;95250.88;;;1.48;100.00
69570;BME280;56781;42.292;23.146;2023-03-25T02:22:34;95254.94;;;1.33;100.00
69570;BME280;56781;42.292;23.146;2023-03-25T02:28:34;95255.50;;;1.14;100.00
69570;BME280;56781;42.292;23.146;2023-03-25T02:34:04;95258.50;;;0.78;100.00
69570;BME280;56781;42.292;23.146;2023-03-25T02:39:40;95246.78;;;0.08;100.00
69570;BME280;56781;42.292;23.146;2023-03-25T02:42:27;95241.91;;;0.17;100.00
69570;BME280;56781;42.292;23.146;2023-03-25T02:45:17;95251.22;;;0.63;100.00
69570;BME280;56781;42.292;23.146;2023-03-25T02:47:51;95252.72;;;0.59;100.00
69570;BME280;56781;42.292;23.146;2023-03-25T02:50:50;95280.41;;;0.79;100.00
69570;BME280;56781;42.292;23.146;2023-03-25T02:53:38;95266.44;;;0.39;100.00
69570;BME280;56781;42.292;23.146;2023-03-25T02:56:08;95267.50;;;0.05;100.00
69570;BME280;56781;42.292;23.146;2023-03-25T02:58:39;95215.75;;;-0.40;100.00
69570;BME280;56781;42.292;23.146;2023-03-25T03:01:07;95253.53;;;-0.30;100.00
69570;BME280;56781;42.292;23.146;2023-03-25T03:03:35;95257.97;;;-0.30;100.00
69570;BME280;56781;42.292;23.146;2023-03-25T03:06:04;95253.03;;;-0.43;100.00
69570;BME280;56781;42.292;23.146;2023-03-25T03:11:19;95245.94;;;0.08;100.00
69570;BME280;56781;42.292;23.146;2023-03-25T03:19:29;95262.94;;;-0.17;100.00
69570;BME280;56781;42.292;23.146;2023-03-25T03:27:54;95260.38;;;0.39;100.00
69570;BME280;56781;42.292;23.146;2023-03-25T03:30:35;95262.38;;;0.32;100.00
69570;BME280;56781;42.292;23.146;2023-03-25T03:35:46;95249.69;;;-0.22;100.00
69570;BME280;56781;42.292;23.146;2023-03-25T03:38:19;95256.72;;;-0.28;100.00
69570;BME280;56781;42.292;23.146;2023-03-25T03:40:55;95248.84;;;-0.11;100.00
69570;BME280;56781;42.292;23.146;2023-03-25T03:43:27;95253.22;;;0.01;100.00
69570;BME280;56781;42.292;23.146;2023-03-25T03:46:07;95251.03;;;0.31;100.00
69570;BME280;56781;42.292;23.146;2023-03-25T03:48:46;95258.91;;;0.48;100.00
69570;BME280;56781;42.292;23.146;2023-03-25T03:51:24;95250.59;;;0.56;100.00
69570;BME280;56781;42.292;23.146;2023-03-25T03:54:09;95256.84;;;0.50;100.00
69570;BME280;56781;42.292;23.146;2023-03-25T03:56:43;95247.59;;;0.48;100.00
69570;BME280;56781;42.292;23.146;2023-03-25T03:59:18;95256.38;;;0.36;100.00
69570;BME280;56781;42.292;23.146;2023-03-25T04:01:50;95249.56;;;0.02;100.00
69570;BME280;56781;42.292;23.146;2023-03-25T04:04:23;95245.00;;;-0.20;100.00
69570;BME280;56781;42.292;23.146;2023-03-25T04:06:57;95252.56;;;0.10;100.00
69570;BME280;56781;42.292;23.146;2023-03-25T04:12:45;95262.16;;;0.16;100.00
69570;BME280;56781;42.292;23.146;2023-03-25T04:15:14;95266.59;;;-0.35;100.00
69570;BME280;56781;42.292;23.146;2023-03-25T04:17:43;95255.25;;;-0.52;100.00
69570;BME280;56781;42.292;23.146;2023-03-25T04:20:15;95254.31;;;-0.46;100.00
69570;BME280;56781;42.292;23.146;2023-03-25T04:22:50;95248.72;;;-0.50;100.00
69570;BME280;56781;42.292;23.146;2023-03-25T04:25:18;95257.19;;;-0.14;100.00
69570;BME280;56781;42.292;23.146;2023-03-25T04:27:47;95264.69;;;-0.06;100.00
69570;BME280;56781;42.292;23.146;2023-03-25T04:30:15;95271.78;;;0.11;100.00
69570;BME280;56781;42.292;23.146;2023-03-25T04:32:46;95264.22;;;0.31;100.00
69570;BME280;56781;42.292;23.146;2023-03-25T04:35:17;95256.66;;;0.57;100.00
69570;BME280;56781;42.292;23.146;2023-03-25T04:37:45;95283.50;;;0.98;100.00
69570;BME280;56781;42.292;23.146;2023-03-25T04:40:15;95270.53;;;1.13;100.00
69570;BME280;56781;42.292;23.146;2023-03-25T04:42:45;95282.16;;;1.39;100.00
69570;BME280;56781;42.292;23.146;2023-03-25T04:45:13;95273.41;;;1.33;100.00
69570;BME280;56781;42.292;23.146;2023-03-25T04:47:45;95275.81;;;1.13;100.00
69570;BME280;56781;42.292;23.146;2023-03-25T04:50:25;95283.41;;;1.31;100.00
69570;BME280;56781;42.292;23.146;2023-03-25T04:52:54;95269.78;;;1.18;100.00
69570;BME280;56781;42.292;23.146;2023-03-25T04:55:26;95268.88;;;1.29;100.00
69570;BME280;56781;42.292;23.146;2023-03-25T04:57:55;95279.69;;;1.32;100.00
69570;BME280;56781;42.292;23.146;2023-03-25T05:00:23;95298.63;;;1.51;100.00
69570;BME280;56781;42.292;23.146;2023-03-25T05:02:53;95269.47;;;0.92;100.00
69570;BME280;56781;42.292;23.146;2023-03-25T05:05:23;95257.44;;;0.96;100.00
69570;BME280;56781;42.292;23.146;2023-03-25T05:07:52;95268.00;;;0.57;100.00
69570;BME280;56781;42.292;23.146;2023-03-25T05:10:22;95257.47;;;0.40;100.00
69570;BME280;56781;42.292;23.146;2023-03-25T05:12:50;95267.13;;;0.52;100.00
69570;BME280;56781;42.292;23.146;2023-03-25T05:15:23;95293.38;;;0.85;100.00
69570;BME280;56781;42.292;23.146;2023-03-25T05:17:51;95291.97;;;1.00;100.00
69570;BME280;56781;42.292;23.146;2023-03-25T05:20:18;95272.22;;;1.24;100.00
69570;BME280;56781;42.292;23.146;2023-03-25T05:22:45;95277.25;;;1.48;100.00
69570;BME280;56781;42.292;23.146;2023-03-25T05:25:12;95258.44;;;1.66;100.00
69570;BME280;56781;42.292;23.146;2023-03-25T05:27:39;95262.22;;;2.45;100.00
69570;BME280;56781;42.292;23.146;2023-03-25T05:30:07;95263.75;;;3.77;100.00
69570;BME280;56781;42.292;23.146;2023-03-25T05:32:34;95276.41;;;4.98;99.11
69570;BME280;56781;42.292;23.146;2023-03-25T05:35:03;95261.81;;;6.05;94.06
69570;BME280;56781;42.292;23.146;2023-03-25T05:37:30;95253.59;;;7.37;86.13
69570;BME280;56781;42.292;23.146;2023-03-25T05:39:57;95244.91;;;8.07;82.98
69570;BME280;56781;42.292;23.146;2023-03-25T05:42:24;95252.13;;;9.41;77.59
69570;BME280;56781;42.292;23.146;2023-03-25T05:44:52;95278.22;;;10.44;72.06
69570;BME280;56781;42.292;23.146;2023-03-25T05:47:23;95257.66;;;11.16;67.96
69570;BME280;56781;42.292;23.146;2023-03-25T05:49:51;95243.19;;;12.09;65.84
69570;BME280;56781;42.292;23.146;2023-03-25T05:52:20;95241.75;;;12.55;60.85
69570;BME280;56781;42.292;23.146;2023-03-25T05:54:50;95249.69;;;11.42;65.62
69570;BME280;56781;42.292;23.146;2023-03-25T05:57:17;95242.78;;;11.58;65.48
69570;BME280;56781;42.292;23.146;2023-03-25T05:59:44;95252.63;;;13.52;60.62
69570;BME280;56781;42.292;23.146;2023-03-25T06:02:13;95243.75;;;14.24;56.76
69570;BME280;56781;42.292;23.146;2023-03-25T06:04:42;95251.09;;;14.35;57.82
69570;BME280;56781;42.292;23.146;2023-03-25T06:07:10;95257.06;;;14.41;57.77
69570;BME280;56781;42.292;23.146;2023-03-25T06:09:46;95251.56;;;14.58;57.42
69570;BME280;56781;42.292;23.146;2023-03-25T06:12:20;95232.13;;;15.35;54.69
69570;BME280;56781;42.292;23.146;2023-03-25T06:14:48;95262.91;;;15.22;56.66
69570;BME280;56781;42.292;23.146;2023-03-25T06:17:21;95234.50;;;15.49;54.97
69570;BME280;56781;42.292;23.146;2023-03-25T06:19:50;95257.22;;;14.24;58.22
69570;BME280;56781;42.292;23.146;2023-03-25T06:22:18;95272.44;;;13.48;63.89
69570;BME280;56781;42.292;23.146;2023-03-25T06:24:48;95266.91;;;13.95;62.79
69570;BME280;56781;42.292;23.146;2023-03-25T06:27:16;95246.66;;;14.18;62.20
69570;BME280;56781;42.292;23.146;2023-03-25T06:29:45;95238.88;;;15.54;56.84
69570;BME280;56781;42.292;23.146;2023-03-25T06:32:14;95230.03;;;15.78;56.59
69570;BME280;56781;42.292;23.146;2023-03-25T06:34:41;95233.28;;;17.75;50.19
69570;BME280;56781;42.292;23.146;2023-03-25T06:37:09;95261.78;;;17.21;51.21
69570;BME280;56781;42.292;23.146;2023-03-25T06:39:36;95238.31;;;16.25;53.27
69570;BME280;56781;42.292;23.146;2023-03-25T06:42:04;95230.09;;;15.93;54.43
69570;BME280;56781;42.292;23.146;2023-03-25T06:44:31;95235.69;;;16.13;54.44
69570;BME280;56781;42.292;23.146;2023-03-25T06:46:59;95235.44;;;18.40;48.09
69570;BME280;56781;42.292;23.146;2023-03-25T06:49:28;95241.22;;;18.58;46.92
69570;BME280;56781;42.292;23.146;2023-03-25T06:51:55;95250.63;;;18.25;49.00
69570;BME280;56781;42.292;23.146;2023-03-25T06:54:22;95233.75;;;17.30;50.56
69570;BME280;56781;42.292;23.146;2023-03-25T06:56:49;95239.91;;;18.91;47.34
69570;BME280;56781;42.292;23.146;2023-03-25T06:59:16;95244.06;;;18.85;47.85
69570;BME280;56781;42.292;23.146;2023-03-25T07:01:43;95230.50;;;20.67;43.75
69570;BME280;56781;42.292;23.146;2023-03-25T07:04:10;95264.69;;;17.96;50.20
69570;BME280;56781;42.292;23.146;2023-03-25T07:06:37;95254.00;;;18.38;48.55
69570;BME280;56781;42.292;23.146;2023-03-25T07:09:04;95232.72;;;19.48;45.35
69570;BME280;56781;42.292;23.146;2023-03-25T07:11:32;95250.25;;;19.27;48.16
69570;BME280;56781;42.292;23.146;2023-03-25T07:13:59;95255.63;;;18.62;49.30
69570;BME280;56781;42.292;23.146;2023-03-25T07:16:26;95249.09;;;19.06;47.01
69570;BME280;56781;42.292;23.146;2023-03-25T07:18:54;95236.53;;;19.93;44.77
69570;BME280;56781;42.292;23.146;2023-03-25T07:21:22;95234.41;;;19.79;45.08
69570;BME280;56781;42.292;23.146;2023-03-25T07:23:49;95216.16;;;20.36;43.29
69570;BME280;56781;42.292;23.146;2023-03-25T07:26:17;95216.44;;;20.58;43.33
69570;BME280;56781;42.292;23.146;2023-03-25T07:28:44;95214.19;;;20.67;44.05
69570;BME280;56781;42.292;23.146;2023-03-25T07:31:15;95218.72;;;20.56;44.25
69570;BME280;56781;42.292;23.146;2023-03-25T07:33:42;95219.28;;;17.38;51.16
69570;BME280;56781;42.292;23.146;2023-03-25T07:36:10;95224.22;;;16.04;56.11
69570;BME280;56781;42.292;23.146;2023-03-25T07:38:38;95217.25;;;15.90;58.06
69570;BME280;56781;42.292;23.146;2023-03-25T07:41:07;95219.47;;;16.41;55.12
69570;BME280;56781;42.292;23.146;2023-03-25T07:43:40;95243.31;;;17.75;52.68
69570;BME280;56781;42.292;23.146;2023-03-25T07:46:08;95227.44;;;19.32;48.99
69570;BME280;56781;42.292;23.146;2023-03-25T07:48:36;95214.34;;;20.18;45.41
69570;BME280;56781;42.292;23.146;2023-03-25T07:51:03;95224.88;;;20.53;45.12
69570;BME280;56781;42.292;23.146;2023-03-25T07:53:30;95210.63;;;19.99;45.25
69570;BME280;56781;42.292;23.146;2023-03-25T07:55:58;95188.72;;;20.19;46.56
69570;BME280;56781;42.292;23.146;2023-03-25T07:58:25;95230.38;;;19.96;46.22
69570;BME280;56781;42.292;23.146;2023-03-25T08:00:55;95201.06;;;20.43;44.01
69570;BME280;56781;42.292;23.146;2023-03-25T08:03:23;95196.38;;;20.40;42.96
69570;BME280;56781;42.292;23.146;2023-03-25T08:05:51;95192.56;;;20.14;42.95
69570;BME280;56781;42.292;23.146;2023-03-25T08:08:18;95212.69;;;20.09;44.35
69570;BME280;56781;42.292;23.146;2023-03-25T08:10:45;95198.84;;;19.65;45.08
69570;BME280;56781;42.292;23.146;2023-03-25T08:13:13;95207.56;;;19.74;45.05
69570;BME280;56781;42.292;23.146;2023-03-25T08:15:41;95194.41;;;20.36;44.11
69570;BME280;56781;42.292;23.146;2023-03-25T08:18:08;95173.78;;;20.66;43.12
69570;BME280;56781;42.292;23.146;2023-03-25T08:20:35;95186.09;;;20.56;44.85
69570;BME280;56781;42.292;23.146;2023-03-25T08:23:03;95170.88;;;20.18;45.51
69570;BME280;56781;42.292;23.146;2023-03-25T08:25:30;95155.22;;;20.78;41.70
69570;BME280;56781;42.292;23.146;2023-03-25T08:27:57;95177.13;;;20.93;43.28
69570;BME280;56781;42.292;23.146;2023-03-25T08:30:24;95182.38;;;21.16;43.88
69570;BME280;56781;42.292;23.146;2023-03-25T08:32:51;95155.06;;;21.05;42.06
69570;BME280;56781;42.292;23.146;2023-03-25T08:35:23;95154.66;;;21.03;41.21
69570;BME280;56781;42.292;23.146;2023-03-25T08:37:51;95160.81;;;19.65;43.58
69570;BME280;56781;42.292;23.146;2023-03-25T08:40:18;95167.19;;;20.36;44.47
69570;BME280;56781;42.292;23.146;2023-03-25T08:42:45;95168.81;;;20.78;41.77
69570;BME280;56781;42.292;23.146;2023-03-25T08:45:12;95178.34;;;21.40;42.35
69570;BME280;56781;42.292;23.146;2023-03-25T08:47:42;95154.78;;;21.17;41.30
69570;BME280;56781;42.292;23.146;2023-03-25T08:50:09;95154.25;;;20.60;42.54
69570;BME280;56781;42.292;23.146;2023-03-25T08:52:37;95144.13;;;19.63;41.57
69570;BME280;56781;42.292;23.146;2023-03-25T08:55:05;95165.84;;;18.87;46.16
69570;BME280;56781;42.292;23.146;2023-03-25T08:57:37;95147.03;;;18.74;46.61
69570;BME280;56781;42.292;23.146;2023-03-25T09:00:04;95163.91;;;18.87;44.68
69570;BME280;56781;42.292;23.146;2023-03-25T09:02:41;95170.91;;;18.69;45.32
69570;BME280;56781;42.292;23.146;2023-03-25T09:05:10;95131.84;;;18.50;45.75
69570;BME280;56781;42.292;23.146;2023-03-25T09:07:38;95124.59;;;19.27;44.34
69570;BME280;56781;42.292;23.146;2023-03-25T09:10:06;95140.63;;;19.62;43.84
69570;BME280;56781;42.292;23.146;2023-03-25T09:12:33;95145.19;;;19.55;43.13
69570;BME280;56781;42.292;23.146;2023-03-25T09:15:00;95129.84;;;19.66;43.02
69570;BME280;56781;42.292;23.146;2023-03-25T09:17:28;95140.94;;;18.81;44.92
69570;BME280;56781;42.292;23.146;2023-03-25T09:19:55;95135.69;;;18.92;45.36
69570;BME280;56781;42.292;23.146;2023-03-25T09:22:24;95111.84;;;18.35;47.32
69570;BME280;56781;42.292;23.146;2023-03-25T09:24:51;95106.88;;;19.07;44.83
69570;BME280;56781;42.292;23.146;2023-03-25T09:27:18;95103.53;;;19.17;44.66
69570;BME280;56781;42.292;23.146;2023-03-25T09:29:46;95109.53;;;19.03;45.85
69570;BME280;56781;42.292;23.146;2023-03-25T09:32:13;95080.78;;;18.10;45.90
69570;BME280;56781;42.292;23.146;2023-03-25T09:34:40;95112.78;;;18.66;45.63
69570;BME280;56781;42.292;23.146;2023-03-25T09:37:08;95085.34;;;18.94;47.35
69570;BME280;56781;42.292;23.146;2023-03-25T09:39:35;95078.81;;;19.22;45.67
69570;BME280;56781;42.292;23.146;2023-03-25T09:44:55;95092.94;;;19.65;44.45
69570;BME280;56781;42.292;23.146;2023-03-25T09:47:24;95072.38;;;19.64;42.92
69570;BME280;56781;42.292;23.146;2023-03-25T09:49:56;95055.91;;;19.49;43.14
69570;BME280;56781;42.292;23.146;2023-03-25T09:52:32;95061.13;;;19.96;42.31
69570;BME280;56781;42.292;23.146;2023-03-25T09:55:07;95060.84;;;20.45;41.86
69570;BME280;56781;42.292;23.146;2023-03-25T09:57:43;95050.41;;;20.51;40.44
69570;BME280;56781;42.292;23.146;2023-03-25T10:00:22;95036.75;;;20.85;43.25
69570;BME280;56781;42.292;23.146;2023-03-25T10:03:04;95056.34;;;21.08;35.67
69570;BME280;56781;42.292;23.146;2023-03-25T10:06:04;95035.47;;;21.30;35.89
69570;BME280;56781;42.292;23.146;2023-03-25T10:08:53;95020.28;;;21.25;37.58
69570;BME280;56781;42.292;23.146;2023-03-25T10:11:35;95024.94;;;21.25;36.02
69570;BME280;56781;42.292;23.146;2023-03-25T10:14:12;95017.28;;;20.83;35.00
69570;BME280;56781;42.292;23.146;2023-03-25T10:17:29;95025.47;;;20.90;36.70
69570;BME280;56781;42.292;23.146;2023-03-25T10:20:33;95029.38;;;21.55;37.60
69570;BME280;56781;42.292;23.146;2023-03-25T10:23:11;95007.94;;;21.46;35.27
69570;BME280;56781;42.292;23.146;2023-03-25T10:25:44;95021.34;;;21.87;37.36
69570;BME280;56781;42.292;23.146;2023-03-25T10:28:26;94982.13;;;21.22;33.35
69570;BME280;56781;42.292;23.146;2023-03-25T10:30:54;94984.50;;;21.27;33.25
69570;BME280;56781;42.292;23.146;2023-03-25T10:33:30;94975.03;;;21.03;32.78
69570;BME280;56781;42.292;23.146;2023-03-25T10:36:03;94993.78;;;21.15;34.21
69570;BME280;56781;42.292;23.146;2023-03-25T10:38:34;94963.72;;;20.94;34.54
69570;BME280;56781;42.292;23.146;2023-03-25T10:43:40;94991.63;;;21.50;32.15
69570;BME280;56781;42.292;23.146;2023-03-25T10:48:57;94954.91;;;21.18;32.61
69570;BME280;56781;42.292;23.146;2023-03-25T10:51:34;94949.09;;;21.23;35.41
69570;BME280;56781;42.292;23.146;2023-03-25T10:54:03;94969.22;;;21.08;34.32
69570;BME280;56781;42.292;23.146;2023-03-25T10:56:34;94953.53;;;21.57;35.87
69570;BME280;56781;42.292;23.146;2023-03-25T10:59:13;94951.28;;;22.05;34.28
69570;BME280;56781;42.292;23.146;2023-03-25T11:01:44;94945.09;;;22.19;33.46
69570;BME280;56781;42.292;23.146;2023-03-25T11:04:17;94949.78;;;22.19;33.15
69570;BME280;56781;42.292;23.146;2023-03-25T11:06:51;94950.84;;;21.82;33.50
69570;BME280;56781;42.292;23.146;2023-03-25T11:09:24;94932.25;;;22.23;32.26
69570;BME280;56781;42.292;23.146;2023-03-25T11:11:52;94911.91;;;22.82;33.33
69570;BME280;56781;42.292;23.146;2023-03-25T11:14:25;94909.88;;;23.18;33.35
69570;BME280;56781;42.292;23.146;2023-03-25T11:17:01;94909.94;;;23.11;30.94
69570;BME280;56781;42.292;23.146;2023-03-25T11:22:07;94922.31;;;23.33;29.92
69570;BME280;56781;42.292;23.146;2023-03-25T11:24:41;94888.09;;;23.04;30.60
69570;BME280;56781;42.292;23.146;2023-03-25T11:27:09;94902.69;;;23.56;30.18
69570;BME280;56781;42.292;23.146;2023-03-25T11:29:50;94885.56;;;23.49;29.39
69570;BME280;56781;42.292;23.146;2023-03-25T11:32:38;94883.22;;;23.47;29.44
69570;BME280;56781;42.292;23.146;2023-03-25T11:35:21;94874.34;;;23.25;28.91
69570;BME280;56781;42.292;23.146;2023-03-25T11:38:00;94888.97;;;23.63;29.15
69570;BME280;56781;42.292;23.146;2023-03-25T11:40:29;94874.56;;;23.56;28.92
69570;BME280;56781;42.292;23.146;2023-03-25T11:42:59;94871.41;;;23.68;28.46
69570;BME280;56781;42.292;23.146;2023-03-25T11:45:32;94863.41;;;23.32;29.07
69570;BME280;56781;42.292;23.146;2023-03-25T11:48:09;94873.06;;;23.51;28.23
69570;BME280;56781;42.292;23.146;2023-03-25T11:50:37;94861.41;;;23.36;27.66
69570;BME280;56781;42.292;23.146;2023-03-25T11:53:05;94861.41;;;23.36;28.20
69570;BME280;56781;42.292;23.146;2023-03-25T11:55:43;94866.81;;;23.51;27.97
69570;BME280;56781;42.292;23.146;2023-03-25T11:58:24;94868.22;;;22.99;28.33
69570;BME280;56781;42.292;23.146;2023-03-25T12:01:03;94832.00;;;22.81;30.62
69570;BME280;56781;42.292;23.146;2023-03-25T12:03:32;94852.78;;;22.43;30.34
69570;BME280;56781;42.292;23.146;2023-03-25T12:06:18;94832.94;;;22.21;30.64
69570;BME280;56781;42.292;23.146;2023-03-25T12:08:56;94832.09;;;22.49;32.13
69570;BME280;56781;42.292;23.146;2023-03-25T12:11:30;94835.91;;;22.84;30.78
69570;BME280;56781;42.292;23.146;2023-03-25T12:30:44;94831.63;;;23.60;31.04
69570;BME280;56781;42.292;23.146;2023-03-25T12:33:25;94825.16;;;23.29;30.31
69570;BME280;56781;42.292;23.146;2023-03-25T12:36:22;94828.31;;;23.27;31.12
69570;BME280;56781;42.292;23.146;2023-03-25T12:47:34;94801.47;;;23.11;30.89
69570;BME280;56781;42.292;23.146;2023-03-25T12:52:55;94794.91;;;22.94;30.56
69570;BME280;56781;42.292;23.146;2023-03-25T12:58:33;94811.44;;;23.43;31.03
69570;BME280;56781;42.292;23.146;2023-03-25T13:01:31;94803.44;;;23.70;32.00
69570;BME280;56781;42.292;23.146;2023-03-25T13:07:08;94797.84;;;22.33;32.28
69570;BME280;56781;42.292;23.146;2023-03-25T13:12:29;94814.22;;;22.37;31.33
69570;BME280;56781;42.292;23.146;2023-03-25T13:15:06;94805.47;;;22.85;31.83
69570;BME280;56781;42.292;23.146;2023-03-25T13:17:49;94774.31;;;22.79;31.71
69570;BME280;56781;42.292;23.146;2023-03-25T13:20:18;94804.81;;;22.49;31.95
69570;BME280;56781;42.292;23.146;2023-03-25T13:22:49;94788.50;;;22.27;32.84
69570;BME280;56781;42.292;23.146;2023-03-25T13:25:26;94802.13;;;22.20;32.04
69570;BME280;56781;42.292;23.146;2023-03-25T13:27:57;94795.53;;;22.00;32.14
69570;BME280;56781;42.292;23.146;2023-03-25T13:30:33;94797.88;;;21.94;31.13
69570;BME280;56781;42.292;23.146;2023-03-25T13:33:06;94789.31;;;21.53;31.98
69570;BME280;56781;42.292;23.146;2023-03-25T13:36:08;94777.66;;;21.59;32.20
69570;BME280;56781;42.292;23.146;2023-03-25T13:38:58;94796.31;;;21.54;30.75
69570;BME280;56781;42.292;23.146;2023-03-25T13:41:35;94810.28;;;21.34;32.02
69570;BME280;56781;42.292;23.146;2023-03-25T13:44:10;94786.47;;;20.99;32.37
69570;BME280;56781;42.292;23.146;2023-03-25T13:49:48;94810.06;;;20.70;33.65
69570;BME280;56781;42.292;23.146;2023-03-25T13:52:17;94798.66;;;20.43;34.05
69570;BME280;56781;42.292;23.146;2023-03-25T13:54:53;94813.03;;;20.43;34.05
69570;BME280;56781;42.292;23.146;2023-03-25T14:06:23;94833.44;;;19.26;35.72
69570;BME280;56781;42.292;23.146;2023-03-25T14:12:12;94849.31;;;17.15;50.83
69570;BME280;56781;42.292;23.146;2023-03-25T14:14:45;94849.94;;;16.86;52.20
69570;BME280;56781;42.292;23.146;2023-03-25T14:17:15;94851.78;;;16.66;53.25
69570;BME280;56781;42.292;23.146;2023-03-25T14:19:50;94856.84;;;16.48;54.61
69570;BME280;56781;42.292;23.146;2023-03-25T14:22:24;94856.72;;;16.25;55.56
69570;BME280;56781;42.292;23.146;2023-03-25T14:24:53;94854.47;;;16.11;56.21
69570;BME280;56781;42.292;23.146;2023-03-25T14:27:25;94882.97;;;15.92;60.27
69570;BME280;56781;42.292;23.146;2023-03-25T14:29:57;94872.22;;;15.48;64.35
69570;BME280;56781;42.292;23.146;2023-03-25T14:32:28;94882.31;;;15.36;65.42
69570;BME280;56781;42.292;23.146;2023-03-25T14:48:32;94877.94;;;15.75;64.76
69570;BME280;56781;42.292;23.146;2023-03-25T14:51:48;94869.03;;;15.90;64.25
69570;BME280;56781;42.292;23.146;2023-03-25T14:57:05;94883.75;;;15.93;66.38
69570;BME280;56781;42.292;23.146;2023-03-25T14:59:40;94875.31;;;15.94;65.18
69570;BME280;56781;42.292;23.146;2023-03-25T15:02:14;94863.03;;;15.97;61.92
69570;BME280;56781;42.292;23.146;2023-03-25T15:04:44;94861.16;;;16.17;61.50
69570;BME280;56781;42.292;23.146;2023-03-25T15:07:17;94852.69;;;16.34;61.56
69570;BME280;56781;42.292;23.146;2023-03-25T15:09:51;94857.97;;;16.47;61.97